Time;durP1;ratioP1;P1;durP2;ratioP2;P2;SDS_P1;SDS_P2;PMS_P1;PMS_P2;Temp;Humidity;BMP_temperature;BMP_pressure;BME280_temperature;BME280_humidity;BME280_pressure;Samples;Min_cycle;Max_cycle;Signal;HPM_P1;HPM_P2
2022/01/30 00:00:06;;;;;;;6.35;4.28;;;;;;;6.28;100.00;98651.61;1601570;88;26225;-72
2022/01/30 00:02:36;;;;;;;3.60;1.40;;;;;;;6.28;100.00;98680.36;1601074;88;25780;-72
2022/01/30 00:05:04;;;;;;;5.42;2.05;;;;;;;6.19;100.00;98710.83;1601809;89;27463;-72
2022/01/30 00:07:30;;;;;;;5.25;1.50;;;;;;;6.05;100.00;98677.30;1601223;89;25807;-72
2022/01/30 00:09:56;;;;;;;3.30;1.20;;;;;;;5.92;99.39;98665.34;1601475;88;25899;-73
2022/01/30 00:12:33;;;;;;;3.42;1.12;;;;;;;5.83;98.41;98683.79;1601245;89;26600;-72
2022/01/30 00:14:54;;;;;;;4.10;0.90;;;;;;;5.79;98.40;98684.72;1600344;89;25810;-71
2022/01/30 00:17:24;;;;;;;6.10;1.35;;;;;;;5.77;98.36;98694.73;1601044;88;27432;-71
2022/01/30 00:19:54;;;;;;;2.50;1.07;;;;;;;5.74;97.81;98685.00;1600342;88;25818;-72
2022/01/30 00:22:33;;;;;;;3.50;1.35;;;;;;;5.72;97.87;98682.55;1599818;89;25882;-71
2022/01/30 00:27:17;;;;;;;8.43;2.02;;;;;;;5.69;97.45;98696.22;1601371;89;26073;-71
2022/01/30 00:29:40;;;;;;;3.92;1.32;;;;;;;5.67;96.47;98696.94;1601041;88;28328;-71
2022/01/30 00:32:08;;;;;;;4.42;1.10;;;;;;;5.67;95.88;98725.33;1601216;89;25840;-71
2022/01/30 00:34:34;;;;;;;4.85;1.07;;;;;;;5.66;94.57;98706.45;1623638;87;25301;-72
2022/01/30 00:37:02;;;;;;;3.35;1.00;;;;;;;5.66;94.27;98701.95;1616030;87;25809;-71
2022/01/30 00:39:29;;;;;;;5.22;1.40;;;;;;;5.64;93.53;98698.69;1616911;87;25930;-72
2022/01/30 00:41:56;;;;;;;3.40;1.25;;;;;;;5.63;93.20;98711.64;1627402;88;27552;-72
2022/01/30 00:44:22;;;;;;;10.68;2.45;;;;;;;5.63;93.68;98719.61;1627268;88;25918;-72
2022/01/30 00:46:49;;;;;;;9.23;1.37;;;;;;;5.63;93.96;98731.56;1618729;87;25869;-71
2022/01/30 09:59:56;;;;;;;13.15;3.98;;;;;;;3.04;99.70;98425.52;1831243;77;25730;-72
2022/01/30 10:02:26;;;;;;;19.95;4.72;;;;;;;2.99;99.63;98431.91;1793393;78;25803;-72
2022/01/30 10:04:50;;;;;;;19.15;8.35;;;;;;;3.04;99.82;98430.81;1794723;78;28346;-72
2022/01/30 10:07:22;;;;;;;17.42;4.70;;;;;;;3.07;99.46;98439.20;1795653;78;27817;-72
2022/01/30 10:09:49;;;;;;;18.80;5.25;;;;;;;3.09;99.74;98429.73;1752078;81;25824;-71
2022/01/30 10:26:35;;;;;;;35.68;14.80;;;;;;;3.52;97.52;98435.73;1798749;78;25780;-72
2022/01/30 10:29:22;;;;;;;57.98;21.62;;;;;;;3.31;98.20;98440.59;1754488;80;25301;-72
2022/01/30 10:32:07;;;;;;;71.75;28.35;;;;;;;3.24;98.79;98440.22;1759678;80;27534;-72
2022/01/30 10:34:36;;;;;;;58.35;22.87;;;;;;;3.20;99.42;98429.72;1733802;80;26412;-71
2022/01/30 10:37:21;;;;;;;81.65;32.85;;;;;;;3.20;99.55;98434.51;1763456;80;25889;-71
2022/01/30 10:40:11;;;;;;;33.70;17.02;;;;;;;3.21;99.66;98434.80;1762301;79;26602;-72
2022/01/30 10:42:43;;;;;;;31.50;18.75;;;;;;;3.22;99.77;98426.38;1766082;80;26168;-72
2022/01/30 10:45:15;;;;;;;22.37;8.88;;;;;;;3.22;99.72;98424.55;1762165;80;27429;-72
2022/01/30 10:47:43;;;;;;;23.05;10.30;;;;;;;3.24;99.79;98416.41;1759020;80;25902;-71
2022/01/30 10:50:16;;;;;;;15.63;6.60;;;;;;;3.25;99.92;98409.59;1762665;80;26504;-71
2022/01/30 10:52:58;;;;;;;17.73;7.87;;;;;;;3.27;99.77;98408.92;1768559;80;25764;-71
2022/01/30 10:55:37;;;;;;;24.32;8.95;;;;;;;3.29;99.95;98412.20;1770217;80;26282;-71
2022/01/30 10:58:05;;;;;;;12.58;5.37;;;;;;;3.32;100.00;98407.82;1698726;83;27602;-72
2022/01/30 11:00:51;;;;;;;20.70;5.28;;;;;;;3.36;100.00;98414.88;1704566;83;25898;-71
2022/01/30 11:03:40;;;;;;;14.93;4.30;;;;;;;3.40;100.00;98424.06;1702159;83;25891;-71
2022/01/30 11:06:11;;;;;;;13.13;3.15;;;;;;;3.42;100.00;98432.09;1703599;83;25868;-71
2022/01/30 11:08:43;;;;;;;10.40;2.70;;;;;;;3.43;100.00;98452.27;1709364;83;26003;-72
2022/01/30 11:19:15;;;;;;;7.92;2.45;;;;;;;3.53;99.32;98476.55;1705111;83;26410;-72
2022/01/30 11:21:44;;;;;;;8.25;2.17;;;;;;;3.57;99.18;98471.71;1713590;82;25976;-72
2022/01/30 11:24:15;;;;;;;8.28;2.30;;;;;;;3.60;99.08;98481.40;1708876;82;27450;-71
2022/01/30 11:26:43;;;;;;;4.40;1.45;;;;;;;3.60;98.41;98483.22;1698887;83;25950;-72
2022/01/30 11:29:12;;;;;;;5.15;2.02;;;;;;;3.61;98.36;98480.90;1724460;83;25745;-72
2022/01/30 11:31:39;;;;;;;6.35;1.92;;;;;;;3.61;97.79;98483.55;1693421;83;25963;-71
2022/01/30 11:34:05;;;;;;;4.62;1.75;;;;;;;3.64;98.21;98488.44;1709299;83;25834;-71
2022/01/30 11:36:33;;;;;;;7.05;1.95;;;;;;;3.66;97.64;98489.06;1701328;83;28260;-71
2022/01/30 11:39:01;;;;;;;6.12;1.67;;;;;;;3.67;97.73;98489.38;1712429;83;26024;-71
2022/01/30 11:41:31;;;;;;;4.28;1.90;;;;;;;3.68;97.08;98511.69;1712622;83;26504;-71
2022/01/30 11:44:22;;;;;;;4.62;1.92;;;;;;;3.68;97.42;98489.67;1704050;83;26467;-72
2022/01/30 11:47:03;;;;;;;5.58;1.60;;;;;;;3.71;97.45;98494.59;1690455;83;25775;-72
2022/01/30 11:49:42;;;;;;;7.33;1.85;;;;;;;3.70;97.12;98512.84;1711057;83;27405;-71
2022/01/30 11:52:10;;;;;;;5.33;1.72;;;;;;;3.69;97.28;98513.34;1704189;83;26118;-71
2022/01/30 11:55:01;;;;;;;4.60;1.35;;;;;;;3.71;97.72;98506.52;1693552;82;26610;-71
2022/01/30 11:57:32;;;;;;;4.70;1.53;;;;;;;3.74;97.08;98523.34;1710415;83;26447;-71
2022/01/30 12:00:02;;;;;;;2.40;1.52;;;;;;;3.73;97.52;98517.23;1705305;83;25825;-71
2022/01/30 12:02:33;;;;;;;3.83;1.50;;;;;;;3.73;97.56;98530.96;1697843;83;27488;-71
2022/01/30 12:05:09;;;;;;;2.10;1.00;;;;;;;3.72;97.77;98535.44;1709573;82;26053;-72
2022/01/30 12:07:48;;;;;;;5.85;1.70;;;;;;;3.71;97.64;98548.88;1727777;82;26280;-71
2022/01/30 12:10:26;;;;;;;2.58;0.98;;;;;;;3.68;97.41;98539.48;1738081;82;26302;-72
2022/01/30 12:12:59;;;;;;;4.37;1.42;;;;;;;3.64;97.55;98544.85;1734364;82;25930;-71
2022/01/30 12:15:44;;;;;;;2.55;1.27;;;;;;;3.60;97.55;98549.40;1718817;83;27568;-72
2022/01/30 12:18:15;;;;;;;4.35;1.62;;;;;;;3.57;97.73;98552.45;1689816;84;25877;-72
2022/01/30 12:21:01;;;;;;;4.28;1.52;;;;;;;3.54;97.54;98562.08;1706971;83;25922;-71
2022/01/30 12:23:36;;;;;;;2.50;1.30;;;;;;;3.50;98.12;98566.13;1707278;83;25774;-71
2022/01/30 12:26:14;;;;;;;3.80;1.42;;;;;;;3.50;98.33;98570.09;1692670;84;26010;-71
2022/01/30 12:28:51;;;;;;;4.53;1.00;;;;;;;3.48;98.32;98578.23;1690170;84;27487;-72
2022/01/30 12:31:34;;;;;;;4.40;1.10;;;;;;;3.49;98.76;98604.17;1700563;83;26648;-71
2022/01/30 12:34:08;;;;;;;3.02;1.10;;;;;;;3.48;98.83;98590.64;1704018;83;25869;-71
2022/01/30 12:36:41;;;;;;;2.60;1.07;;;;;;;3.45;99.01;98602.42;1712564;83;26354;-72
2022/01/30 12:39:21;;;;;;;3.77;1.15;;;;;;;3.45;99.12;98619.63;1712905;83;25937;-72
2022/01/30 12:41:45;;;;;;;3.52;1.20;;;;;;;3.44;99.30;98621.97;1712587;83;27458;-72
2022/01/30 12:44:15;;;;;;;4.37;1.40;;;;;;;3.43;99.66;98612.38;1712643;83;25995;-76
2022/01/30 12:46:48;;;;;;;4.35;1.57;;;;;;;3.42;99.70;98627.92;1712902;83;25791;-75
2022/01/30 12:49:21;;;;;;;2.15;1.30;;;;;;;3.43;99.63;98644.14;1712780;83;25876;-74
2022/01/30 12:51:52;;;;;;;4.30;1.02;;;;;;;3.45;99.75;98637.33;1712597;83;26013;-72
2022/01/30 12:54:36;;;;;;;3.25;1.45;;;;;;;3.45;100.00;98663.78;1710933;83;27525;-72
2022/01/30 12:56:57;;;;;;;3.08;1.27;;;;;;;3.45;99.91;98662.47;1707596;83;26549;-72
2022/01/30 12:59:24;;;;;;;5.15;1.47;;;;;;;3.49;100.00;98658.43;1697431;83;25904;-73
2022/01/30 13:01:51;;;;;;;3.47;1.85;;;;;;;3.52;99.85;98673.45;1715463;83;26065;-76
2022/01/30 13:04:21;;;;;;;3.05;1.20;;;;;;;3.55;99.71;98670.41;1711000;83;25772;-76
2022/01/30 13:06:50;;;;;;;1.80;1.42;;;;;;;3.59;99.65;98688.88;1710399;83;28470;-77
2022/01/30 13:09:26;;;;;;;2.95;2.27;;;;;;;3.60;99.47;98686.55;1687436;83;26668;-74
2022/01/30 13:11:56;;;;;;;4.92;2.25;;;;;;;3.63;98.94;98695.45;1716230;83;25741;-73
2022/01/30 13:14:37;;;;;;;3.80;2.02;;;;;;;3.65;99.25;98696.58;1714901;83;25851;-72
2022/01/30 13:17:05;;;;;;;3.35;2.55;;;;;;;3.66;99.10;98708.30;1715616;83;25794;-72
2022/01/30 13:19:38;;;;;;;3.37;2.60;;;;;;;3.65;98.85;98729.67;1714953;83;28867;-72
2022/01/30 13:22:08;;;;;;;3.67;2.85;;;;;;;3.65;98.67;98729.67;1714908;83;25941;-72
2022/01/30 13:24:35;;;;;;;;;;;;;;;3.64;98.22;98728.02;1716276;83;25728;-72
2022/01/30 13:27:08;;;;;;;3.40;2.47;;;;;;;3.63;98.35;98733.84;1715685;81;26682;-72
2022/01/30 13:29:37;;;;;;;4.20;2.35;;;;;;;3.64;98.23;98749.20;1710123;83;25752;-73
2022/01/30 13:32:09;;;;;;;2.10;1.45;;;;;;;3.66;98.52;98766.54;1710050;83;27435;-72
2022/01/30 13:34:36;;;;;;;4.58;1.72;;;;;;;3.67;97.02;98758.10;1719352;83;25886;-73
2022/01/30 13:37:06;;;;;;;2.50;1.40;;;;;;;3.67;97.56;98777.46;1719381;83;25918;-72
2022/01/30 13:39:52;;;;;;;5.97;1.87;;;;;;;3.67;97.56;98792.02;1718667;83;25771;-73
2022/01/30 13:45:06;;;;;;;2.17;1.20;;;;;;;3.64;97.90;98802.14;1715260;83;27459;-72
2022/01/30 13:47:22;;;;;;;2.10;1.30;;;;;;;3.61;97.91;98807.83;1716878;83;25343;-71
2022/01/30 13:49:50;;;;;;;2.52;1.30;;;;;;;3.58;97.99;98798.43;1718771;83;25822;-72
2022/01/30 13:52:19;;;;;;;1.72;1.12;;;;;;;3.57;97.83;98806.56;1719083;83;26419;-72
2022/01/30 13:55:05;;;;;;;1.35;0.90;;;;;;;3.55;97.67;98821.29;1718488;83;25840;-73
2022/01/30 13:57:34;;;;;;;3.58;2.25;;;;;;;3.54;98.23;98823.64;1718436;83;27518;-72
2022/01/30 14:00:14;;;;;;;2.90;1.60;;;;;;;3.52;98.05;98821.67;1717341;82;26512;-72
2022/01/30 14:03:05;;;;;;;3.83;2.53;;;;;;;3.50;98.01;98829.48;1694652;83;25798;-72
2022/01/30 14:05:38;;;;;;;3.37;2.05;;;;;;;3.50;98.07;98834.28;1717948;83;25959;-72
2022/01/30 14:08:11;;;;;;;3.65;2.37;;;;;;;3.51;98.39;98829.28;1716957;83;26482;-72
2022/01/30 14:10:38;;;;;;;3.47;2.42;;;;;;;3.50;98.54;98834.28;1707567;83;27517;-72
2022/01/30 14:13:20;;;;;;;4.87;3.90;;;;;;;3.53;98.70;98821.19;1715785;83;26434;-72
2022/01/30 14:16:05;;;;;;;6.97;4.40;;;;;;;3.55;98.58;98833.20;1712495;83;25870;-72
2022/01/30 14:18:36;;;;;;;4.80;3.77;;;;;;;3.57;98.43;98831.19;1712940;83;26524;-72
2022/01/30 14:21:08;;;;;;;7.08;4.67;;;;;;;3.61;98.09;98842.25;1712294;83;25954;-72
2022/01/30 14:23:36;;;;;;;3.65;2.27;;;;;;;3.65;97.71;98843.52;1691594;84;27514;-72
2022/01/30 14:26:06;;;;;;;3.95;2.90;;;;;;;3.69;97.20;98847.43;1697848;83;26578;-72
2022/01/30 14:28:33;;;;;;;3.42;1.72;;;;;;;3.73;96.98;98839.43;1692318;84;26470;-77
2022/01/30 14:31:04;;;;;;;3.27;2.30;;;;;;;3.75;96.14;98844.86;1723577;83;25976;-72
2022/01/30 14:33:34;;;;;;;4.40;2.02;;;;;;;3.80;96.23;98857.55;1690083;84;26512;-72
2022/01/30 14:36:02;;;;;;;6.30;2.00;;;;;;;3.83;95.36;98868.58;1723707;83;27723;-72
2022/01/30 14:38:28;;;;;;;5.35;1.70;;;;;;;3.89;94.72;98886.90;1694256;83;25828;-72
2022/01/30 14:40:57;;;;;;;5.62;2.00;;;;;;;3.97;94.51;98867.41;1723756;83;25815;-74
2022/01/30 14:43:24;;;;;;;4.30;2.60;;;;;;;4.02;93.70;98883.58;1693753;84;25482;-72
2022/01/30 14:45:51;;;;;;;6.87;2.42;;;;;;;4.06;93.86;98901.56;1723622;83;25789;-73
2022/01/30 14:48:18;;;;;;;6.35;2.08;;;;;;;4.08;92.90;98906.67;1694562;84;27449;-73
2022/01/30 14:50:45;;;;;;;5.50;1.95;;;;;;;4.07;93.47;98899.22;1723732;83;25810;-72
2022/01/30 14:53:11;;;;;;;5.10;2.42;;;;;;;4.07;93.54;98918.27;1694457;83;25860;-72
2022/01/30 14:55:37;;;;;;;7.15;2.87;;;;;;;4.02;93.59;98933.39;1723616;83;25737;-72
2022/01/30 14:58:05;;;;;;;6.35;2.67;;;;;;;4.02;93.58;98921.99;1703895;83;26506;-72
2022/01/30 15:00:31;;;;;;;4.33;2.40;;;;;;;4.02;93.17;98918.02;1695317;83;27446;-73
2022/01/30 15:02:58;;;;;;;7.75;3.17;;;;;;;4.04;93.50;98923.45;1701305;83;26086;-72
2022/01/30 15:05:24;;;;;;;7.58;2.83;;;;;;;4.06;93.27;98933.36;1697891;83;25867;-72
2022/01/30 15:07:50;;;;;;;11.97;3.00;;;;;;;4.09;92.67;98939.59;1695726;83;25817;-72
2022/01/30 15:10:17;;;;;;;10.13;3.25;;;;;;;4.15;91.94;98940.70;1706409;83;25967;-72
2022/01/30 15:12:44;;;;;;;7.83;3.83;;;;;;;4.19;90.86;98955.22;1702563;83;27627;-72
2022/01/30 15:15:13;;;;;;;6.15;2.42;;;;;;;4.23;89.38;98954.66;1700749;83;25790;-72
2022/01/30 15:17:40;;;;;;;6.10;2.30;;;;;;;4.28;88.50;98968.65;1699946;83;25805;-73
2022/01/30 15:20:12;;;;;;;3.65;1.42;;;;;;;4.33;86.23;98957.00;1703243;83;26718;-72
2022/01/30 15:22:38;;;;;;;6.15;2.08;;;;;;;4.41;86.11;98966.16;1705655;83;25349;-72
2022/01/30 15:25:08;;;;;;;3.85;1.62;;;;;;;4.43;85.48;98963.64;1697756;83;28307;-72
2022/01/30 15:27:38;;;;;;;3.15;1.65;;;;;;;4.45;86.55;98970.07;1683175;83;25952;-72
2022/01/30 15:30:11;;;;;;;4.70;1.47;;;;;;;4.46;84.30;98973.88;1681869;84;25322;-73
2022/01/30 15:32:39;;;;;;;4.85;2.30;;;;;;;4.48;85.06;98965.73;1694044;84;25815;-72
2022/01/30 15:35:09;;;;;;;4.28;2.47;;;;;;;4.49;83.17;98990.72;1722949;82;25360;-72
2022/01/30 15:37:35;;;;;;;6.15;2.65;;;;;;;4.53;82.78;98980.05;1718051;82;27433;-73
2022/01/30 15:40:02;;;;;;;4.42;2.40;;;;;;;4.57;81.82;98987.15;1709780;83;25841;-73
2022/01/30 15:42:31;;;;;;;3.33;1.72;;;;;;;4.58;80.58;99009.49;1698678;83;25843;-73
2022/01/30 15:49:59;;;;;;;2.50;2.08;;;;;;;4.72;78.74;99018.42;1692428;83;28454;-72
2022/01/30 15:52:27;;;;;;;2.60;1.77;;;;;;;4.76;78.81;99013.55;1698299;83;26541;-72
2022/01/30 15:54:54;;;;;;;3.70;1.65;;;;;;;4.76;75.48;99006.92;1702790;83;26459;-72
2022/01/30 15:57:23;;;;;;;3.22;1.92;;;;;;;4.79;73.39;99021.95;1704060;83;26277;-72
2022/01/30 15:59:50;;;;;;;4.80;1.55;;;;;;;4.84;74.73;99043.44;1696523;84;25805;-73
2022/01/30 16:02:16;;;;;;;3.72;1.37;;;;;;;4.85;73.99;99027.02;1698386;84;27671;-72
2022/01/30 16:04:42;;;;;;;2.67;1.22;;;;;;;4.86;71.54;99044.56;1688736;84;25793;-72
2022/01/30 16:07:09;;;;;;;3.30;1.20;;;;;;;4.88;70.00;99035.41;1718488;82;25982;-73
2022/01/30 16:09:37;;;;;;;1.35;0.93;;;;;;;4.90;70.75;99058.59;1687069;84;25899;-73
2022/01/30 16:17:19;;;;;;;3.22;0.82;;;;;;;4.93;69.00;99075.48;1699014;83;25962;-72
2022/01/30 16:19:47;;;;;;;1.25;0.70;;;;;;;4.91;68.30;99087.28;1704149;83;26534;-72
2022/01/30 16:22:13;;;;;;;1.40;0.70;;;;;;;4.89;69.96;99076.04;1708396;83;25809;-73
2022/01/30 16:24:40;;;;;;;3.50;0.80;;;;;;;4.86;70.51;99078.55;1704769;83;26499;-73
2022/01/30 16:27:07;;;;;;;2.00;0.70;;;;;;;4.85;70.77;99081.41;1699834;83;27451;-73
2022/01/30 16:29:34;;;;;;;2.52;0.90;;;;;;;4.79;69.73;99108.16;1694823;82;26227;-73
2022/01/30 16:32:06;;;;;;;1.32;0.62;;;;;;;4.75;70.14;99100.78;1694101;83;25794;-72
2022/01/30 16:34:34;;;;;;;4.22;0.80;;;;;;;4.71;72.06;99108.27;1697897;83;26337;-72
2022/01/30 16:37:04;;;;;;;1.95;0.68;;;;;;;4.67;71.50;99111.80;1689781;83;25769;-73
2022/01/30 16:39:30;;;;;;;1.82;0.50;;;;;;;4.64;71.75;99120.12;1701095;83;27505;-73
2022/01/30 16:41:56;;;;;;;3.98;0.98;;;;;;;4.64;72.33;99119.32;1685972;83;25906;-73
2022/01/30 16:44:25;;;;;;;2.90;0.75;;;;;;;4.60;72.47;99124.64;1706081;83;26683;-72
2022/01/30 16:49:23;;;;;;;1.65;1.00;;;;;;;4.61;73.00;99129.79;1689727;84;26515;-72
2022/01/30 16:51:50;;;;;;;3.90;2.50;;;;;;;4.63;72.37;99137.55;1718185;83;27622;-72
2022/01/30 16:54:18;;;;;;;7.78;2.25;;;;;;;4.64;71.85;99149.29;1693454;82;25943;-72
2022/01/30 16:56:44;;;;;;;5.85;2.22;;;;;;;4.66;73.60;99147.80;1699399;83;26566;-72
2022/01/30 16:59:10;;;;;;;3.33;1.40;;;;;;;4.66;73.36;99167.70;1705977;82;26335;-73
2022/01/30 17:01:37;;;;;;;4.50;1.62;;;;;;;4.65;72.73;99182.78;1695249;83;25904;-72
2022/01/30 17:04:03;;;;;;;3.92;1.87;;;;;;;4.66;72.87;99176.98;1704360;83;28074;-72
2022/01/30 17:06:29;;;;;;;4.70;1.80;;;;;;;4.65;74.07;99177.97;1701745;83;25859;-72
2022/01/30 17:09:11;;;;;;;2.77;1.70;;;;;;;4.63;72.67;99174.18;1700489;84;25880;-72
2022/01/30 17:11:23;;;;;;;3.10;1.77;;;;;;;4.64;72.71;99181.12;1661813;82;26409;-76
2022/01/30 17:13:50;;;;;;;3.85;2.02;;;;;;;4.59;72.00;99180.86;1662086;85;26106;-73
2022/01/30 17:16:20;;;;;;;3.67;2.33;;;;;;;4.59;73.04;99204.73;1660597;85;27469;-73
2022/01/30 17:18:45;;;;;;;3.90;2.20;;;;;;;4.58;73.31;99188.98;1663919;84;26668;-72
2022/01/30 17:21:11;;;;;;;3.33;2.33;;;;;;;4.55;73.19;99186.71;1661349;86;25352;-74
2022/01/30 17:23:38;;;;;;;3.30;2.15;;;;;;;4.54;73.44;99181.07;1672219;85;26281;-75
2022/01/30 17:26:04;;;;;;;3.17;1.92;;;;;;;4.55;72.23;99186.71;1643743;86;25917;-75
2022/01/30 17:28:31;;;;;;;4.08;2.37;;;;;;;4.54;71.98;99195.16;1660040;84;27468;-74
2022/01/30 17:30:58;;;;;;;2.62;1.70;;;;;;;4.54;72.38;99222.17;1678057;84;25750;-73
2022/01/30 17:33:25;;;;;;;6.62;1.92;;;;;;;4.56;71.47;99204.25;1685319;84;25789;-73
2022/01/30 17:35:54;;;;;;;2.42;0.80;;;;;;;4.60;71.24;99218.78;1669900;84;26031;-73
2022/01/30 17:38:22;;;;;;;1.87;0.80;;;;;;;4.60;70.24;99240.83;1666397;85;26538;-73
2022/01/30 17:40:50;;;;;;;2.08;0.88;;;;;;;4.57;70.10;99212.55;1674763;85;28298;-74
2022/01/30 17:43:16;;;;;;;1.62;0.90;;;;;;;4.51;71.11;99226.53;1679293;84;26538;-74
2022/01/30 17:45:43;;;;;;;2.37;0.90;;;;;;;4.44;72.24;99225.11;1679584;84;25841;-74
2022/01/30 17:48:09;;;;;;;2.42;1.30;;;;;;;4.39;72.76;99226.14;1677535;84;26306;-74
2022/01/30 17:50:35;;;;;;;1.85;1.17;;;;;;;4.31;72.58;99228.88;1693121;84;25808;-73
2022/01/30 17:53:02;;;;;;;1.35;0.93;;;;;;;4.30;72.27;99219.78;1694293;83;28264;-74
2022/01/30 17:55:28;;;;;;;2.67;0.82;;;;;;;4.28;72.41;99227.89;1688147;83;25837;-73
2022/01/30 17:57:55;;;;;;;4.28;1.17;;;;;;;4.28;71.37;99221.27;1682044;83;25926;-73
2022/01/30 18:00:24;;;;;;;1.40;0.80;;;;;;;4.28;72.45;99229.22;1694394;83;25534;-74
2022/01/30 18:02:50;;;;;;;1.55;0.90;;;;;;;4.28;71.96;99227.06;1692959;83;25884;-75
2022/01/30 18:05:18;;;;;;;2.22;0.90;;;;;;;4.29;71.79;99222.10;1724159;82;28428;-75
2022/01/30 18:07:47;;;;;;;2.52;0.85;;;;;;;4.28;71.66;99237.17;1730134;82;25943;-75
2022/01/30 18:10:14;;;;;;;2.00;0.98;;;;;;;4.30;70.23;99231.71;1736394;81;25831;-77
2022/01/30 18:12:41;;;;;;;4.08;1.02;;;;;;;4.38;69.61;99243.06;1703887;83;25912;-77
2022/01/30 18:15:10;;;;;;;4.20;0.70;;;;;;;4.42;69.75;99235.56;1708152;83;26595;-76
2022/01/30 18:17:36;;;;;;;3.02;0.80;;;;;;;4.48;69.04;99252.90;1694458;83;28378;-74
2022/01/30 18:20:03;;;;;;;2.70;0.62;;;;;;;4.51;68.73;99249.06;1697668;83;25821;-73
2022/01/30 18:22:29;;;;;;;2.30;0.82;;;;;;;4.53;68.97;99262.44;1708670;83;25983;-72
2022/01/30 18:24:56;;;;;;;4.17;1.30;;;;;;;4.56;68.27;99262.59;1708343;83;26464;-73
2022/01/30 18:27:22;;;;;;;3.77;1.17;;;;;;;4.60;67.78;99257.23;1685190;83;26370;-74
2022/01/30 18:29:51;;;;;;;4.50;1.90;;;;;;;4.63;67.31;99258.22;1678850;84;27475;-73
2022/01/30 18:32:18;;;;;;;2.47;1.47;;;;;;;4.66;67.05;99291.02;1675780;84;25719;-74
2022/01/30 18:34:45;;;;;;;5.22;1.95;;;;;;;4.70;66.17;99277.19;1661217;86;25833;-74
2022/01/30 18:37:20;;;;;;;4.20;1.82;;;;;;;4.73;65.43;99277.86;1737284;81;25783;-72
2022/01/30 18:39:54;;;;;;;;;;;;;;;4.75;66.27;99282.48;1725101;81;25801;-73
2022/01/30 18:42:10;;;;;;;2.40;1.40;;;;;;;4.76;64.99;99274.33;1722045;83;27348;-72
2022/01/30 18:44:37;;;;;;;2.37;1.55;;;;;;;4.76;66.30;99294.72;1713964;83;25973;-74
2022/01/30 18:47:05;;;;;;;5.40;1.57;;;;;;;4.75;67.17;99298.39;1712576;83;25882;-73
2022/01/30 18:49:36;;;;;;;4.85;1.25;;;;;;;4.68;65.95;99307.05;1712815;83;25810;-73
2022/01/30 18:52:00;;;;;;;3.17;1.10;;;;;;;4.59;67.03;99296.22;1715268;82;25795;-73
2022/01/30 18:54:26;;;;;;;3.37;1.02;;;;;;;4.48;68.38;99319.19;1690040;84;28234;-73
2022/01/30 18:56:52;;;;;;;1.85;0.90;;;;;;;4.39;69.27;99324.22;1698925;83;25763;-73
2022/01/30 18:59:19;;;;;;;1.95;0.88;;;;;;;4.30;69.92;99305.93;1685885;84;25881;-78
2022/01/30 19:01:46;;;;;;;3.40;1.07;;;;;;;4.21;69.88;99310.47;1689157;83;27637;-76
2022/01/30 19:04:13;;;;;;;2.10;0.90;;;;;;;4.11;70.82;99311.19;1666046;85;26144;-75
2022/01/30 19:06:41;;;;;;;4.30;0.80;;;;;;;4.07;70.81;99320.98;1692713;84;27523;-75
2022/01/30 19:09:11;;;;;;;2.12;0.80;;;;;;;4.05;71.10;99321.66;1693876;84;25816;-74
2022/01/30 19:11:38;;;;;;;2.40;1.15;;;;;;;4.03;70.19;99288.73;1665630;84;25714;-76
2022/01/30 19:14:08;;;;;;;2.45;1.20;;;;;;;4.05;70.34;99309.74;1702329;83;26479;-75
2022/01/30 19:16:35;;;;;;;3.27;1.57;;;;;;;4.06;70.06;99297.66;1690212;82;25761;-74
2022/01/30 19:19:02;;;;;;;2.77;1.40;;;;;;;4.08;69.75;99304.10;1688354;84;28873;-77
2022/01/30 19:21:30;;;;;;;4.45;1.57;;;;;;;4.08;68.48;99277.61;1705870;82;25948;-74
2022/01/30 19:23:56;;;;;;;2.55;1.12;;;;;;;4.12;68.17;99285.03;1662938;85;25935;-75
2022/01/30 19:26:25;;;;;;;2.50;1.10;;;;;;;4.17;67.37;99287.15;1696704;83;25454;-78
2022/01/30 19:28:52;;;;;;;5.35;1.95;;;;;;;4.23;68.33;99328.84;1724323;81;25874;-75
2022/01/30 19:31:19;;;;;;;3.47;1.25;;;;;;;4.26;68.13;99301.95;1696317;84;27467;-75
2022/01/30 19:33:45;;;;;;;4.50;1.40;;;;;;;4.30;66.37;99290.02;1695964;83;25819;-73
2022/01/30 19:36:12;;;;;;;5.00;1.72;;;;;;;4.34;64.62;99307.22;1695968;84;25761;-75
2022/01/30 19:38:39;;;;;;;2.50;1.40;;;;;;;4.38;66.53;99313.81;1696207;83;26808;-75
2022/01/30 19:41:08;;;;;;;1.30;1.17;;;;;;;4.40;63.69;99290.59;1696709;84;25825;-75
2022/01/30 19:43:35;;;;;;;2.95;1.40;;;;;;;4.47;62.77;99287.56;1696274;84;28305;-76
2022/01/30 19:46:03;;;;;;;3.55;1.35;;;;;;;4.48;61.92;99293.16;1696151;84;25443;-75
2022/01/30 19:48:31;;;;;;;3.17;1.22;;;;;;;4.48;62.81;99299.80;1696345;84;25537;-74
2022/01/30 19:50:58;;;;;;;1.75;1.07;;;;;;;4.45;62.09;99309.42;1696271;84;26794;-75
2022/01/30 19:53:24;;;;;;;2.85;1.37;;;;;;;4.44;62.34;99319.72;1695947;83;25348;-74
2022/01/30 19:55:51;;;;;;;4.97;1.57;;;;;;;4.41;61.32;99290.41;1696447;83;27714;-75
2022/01/30 19:58:19;;;;;;;3.83;1.60;;;;;;;4.41;62.06;99319.56;1696238;84;25984;-73
2022/01/30 20:00:50;;;;;;;4.25;1.60;;;;;;;4.48;60.37;99317.03;1700767;83;25904;-75
2022/01/30 20:03:16;;;;;;;2.15;1.40;;;;;;;4.51;60.09;99357.78;1689671;84;26791;-75
2022/01/30 20:05:46;;;;;;;4.08;1.67;;;;;;;4.52;57.41;99315.66;1658429;86;25984;-75
2022/01/30 20:08:12;;;;;;;3.37;1.30;;;;;;;4.55;60.04;99330.73;1701856;83;27465;-76
2022/01/30 20:10:38;;;;;;;2.08;1.50;;;;;;;4.55;59.35;99337.36;1701676;83;25750;-76
2022/01/30 20:13:05;;;;;;;2.35;1.40;;;;;;;4.52;60.41;99332.41;1695918;83;26538;-77
2022/01/30 20:15:33;;;;;;;1.65;1.20;;;;;;;4.51;60.26;99350.63;1707408;83;25908;-76
2022/01/30 20:18:00;;;;;;;2.62;1.62;;;;;;;4.50;58.03;99361.42;1707715;83;25741;-74
2022/01/30 20:20:26;;;;;;;4.75;1.87;;;;;;;4.50;59.96;99406.50;1721621;82;28337;-74
2022/01/30 20:22:52;;;;;;;2.58;1.50;;;;;;;4.50;58.68;99363.58;1717490;83;26286;-73
2022/01/30 20:25:18;;;;;;;1.85;1.10;;;;;;;4.50;58.59;99366.23;1711237;82;25733;-72
2022/01/30 20:27:44;;;;;;;4.28;2.08;;;;;;;4.49;58.47;99370.39;1707705;83;25990;-77
2022/01/30 20:30:11;;;;;;;2.30;1.47;;;;;;;4.50;58.87;99382.14;1707529;83;26465;-73
2022/01/30 20:32:37;;;;;;;2.37;1.87;;;;;;;4.49;58.77;99374.38;1706860;83;27542;-72
2022/01/30 20:35:08;;;;;;;2.80;1.87;;;;;;;4.47;58.46;99373.20;1707457;82;26407;-74
2022/01/30 20:37:34;;;;;;;3.45;1.57;;;;;;;4.46;59.53;99405.20;1707131;82;26497;-73
2022/01/30 20:40:01;;;;;;;3.67;1.82;;;;;;;4.44;58.85;99404.06;1707939;83;25805;-74
2022/01/30 20:42:28;;;;;;;4.83;2.35;;;;;;;4.44;59.17;99390.80;1707381;83;26303;-75
2022/01/30 20:44:54;;;;;;;3.08;1.72;;;;;;;4.41;59.71;99410.20;1696983;83;27478;-73
2022/01/30 20:47:22;;;;;;;2.40;1.57;;;;;;;4.39;59.87;99397.13;1707627;83;25786;-75
2022/01/30 20:49:49;;;;;;;3.30;1.30;;;;;;;4.38;60.58;99419.84;1707578;83;25797;-73
2022/01/30 20:52:16;;;;;;;5.40;1.67;;;;;;;4.33;61.29;99426.17;1707641;83;25853;-73
2022/01/30 20:54:43;;;;;;;4.85;1.22;;;;;;;4.25;62.79;99421.76;1707743;83;25746;-73
2022/01/30 20:57:10;;;;;;;4.60;1.37;;;;;;;4.13;64.14;99446.18;1704294;83;27615;-77
2022/01/30 20:59:36;;;;;;;3.30;1.02;;;;;;;3.99;64.58;99427.86;1701535;83;25888;-77
2022/01/30 21:02:03;;;;;;;4.75;2.25;;;;;;;3.91;66.05;99440.62;1700997;83;26315;-76
2022/01/30 21:04:29;;;;;;;2.52;0.85;;;;;;;3.88;66.76;99446.78;1695608;82;26372;-73
2022/01/30 21:06:55;;;;;;;4.97;1.07;;;;;;;3.81;68.26;99447.13;1700952;83;25941;-76
2022/01/30 21:09:23;;;;;;;3.22;1.22;;;;;;;3.68;69.25;99458.27;1703804;83;27676;-77
2022/01/30 21:11:51;;;;;;;2.87;1.05;;;;;;;3.55;70.52;99448.70;1704969;83;26799;-75
2022/01/30 21:14:17;;;;;;;3.08;1.60;;;;;;;3.43;71.99;99459.34;1693001;83;25935;-74
2022/01/30 21:16:47;;;;;;;2.37;1.17;;;;;;;3.32;72.35;99480.86;1665920;84;25518;-74
2022/01/30 21:19:14;;;;;;;5.67;1.20;;;;;;;3.25;72.85;99481.70;1653735;85;26612;-75
2022/01/30 21:21:41;;;;;;;2.55;1.20;;;;;;;3.19;73.56;99457.25;1666351;85;27728;-75
2022/01/30 21:24:09;;;;;;;5.45;1.45;;;;;;;3.12;74.04;99454.44;1668642;84;26516;-74
2022/01/30 21:26:38;;;;;;;4.53;1.17;;;;;;;3.09;74.12;99467.50;1670732;84;25826;-73
2022/01/30 21:29:07;;;;;;;3.42;1.30;;;;;;;3.04;74.98;99456.58;1680034;84;26720;-74
2022/01/30 21:31:34;;;;;;;2.02;1.10;;;;;;;3.02;74.73;99458.56;1691561;83;25752;-73
2022/01/30 21:34:00;;;;;;;1.80;0.85;;;;;;;2.99;74.39;99453.59;1691099;83;27189;-74
2022/01/30 21:36:26;;;;;;;4.15;1.45;;;;;;;3.01;74.34;99454.77;1690975;84;26564;-74
2022/01/30 21:38:53;;;;;;;3.30;1.05;;;;;;;3.02;74.14;99449.80;1703521;83;26561;-74
2022/01/30 21:41:19;;;;;;;5.60;1.45;;;;;;;3.03;73.98;99462.05;1710120;83;25833;-74